X  Chiuso Dati meteorologici dell'aviazione (METAR)     LIPX Verona-Villafranca Valerio Catullo Airport
Temperatura
12°C Temperatura
8°C Punto di rugiada
77% Umidità



Vento
5 KM/H
3 MPH
1 M/S
3 KTS



220°
SW
Condizioni attuali

Sereno Sereno
Pressione 1024.04 (hPa) - 30.24 (inHg)
Visibilità 3.7 (miglio) - 6 (km)
Aeroporto
Codice-Aeroporto LIPX

Posizione: Verona-Villafranca Valerio Catullo Airport
Distanza: 50 (km)

Metar:
LIPX 201720Z 22003KT 6000 NSC 12/08 Q1024

Ore: 20-02-2024 17:20 CET